Time;durP1;ratioP1;P1;durP2;ratioP2;P2;SDS_P1;SDS_P2;PMS_P1;PMS_P2;Temp;Humidity;BMP_temperature;BMP_pressure;BME280_temperature;BME280_humidity;BME280_pressure;Samples;Min_cycle;Max_cycle;Signal;HPM_P1;HPM_P2
2022/10/03 00:01:36;;;;;;;;;;;12.70;99.90;;;;;;5115616;28;20122;-80
2022/10/03 00:04:16;;;;;;;;;;;12.70;99.90;;;;;;5115977;28;20389;-80
2022/10/03 00:07:00;;;;;;;;;;;12.80;99.90;;;;;;5094690;28;19924;-80
2022/10/03 00:09:26;;;;;;;;;;;12.80;99.90;;;;;;5114196;28;20341;-81
2022/10/03 00:11:54;;;;;;;;;;;12.90;99.90;;;;;;5098425;28;19927;-81
2022/10/03 00:14:43;;;;;;;;;;;12.90;99.90;;;;;;5098280;28;19924;-81
2022/10/03 00:17:13;;;;;;;;;;;12.80;99.90;;;;;;5102098;28;20361;-80
2022/10/03 00:19:51;;;;;;;;;;;12.80;99.90;;;;;;5115511;28;19934;-80
2022/10/03 00:22:17;;;;;;;;;;;12.80;99.90;;;;;;5098288;28;19976;-81
2022/10/03 00:24:42;;;;;;;;;;;12.70;99.90;;;;;;5129944;28;19930;-81
2022/10/03 00:27:14;;;;;;;;;;;12.70;99.90;;;;;;5096544;28;20014;-80
2022/10/03 00:29:39;;;;;;;;;;;12.70;99.90;;;;;;5101167;28;20724;-80
2022/10/03 00:32:05;;;;;;;;;;;12.60;99.90;;;;;;5122691;28;19924;-82
2022/10/03 00:34:30;;;;;;;;;;;12.60;99.90;;;;;;5109372;28;19923;-81
2022/10/03 00:37:16;;;;;;;;;;;12.60;99.90;;;;;;5114688;28;19924;-80
2022/10/03 00:39:42;;;;;;;;;;;12.50;99.90;;;;;;5113747;28;19924;-80
2022/10/03 00:42:14;;;;;;;;;;;12.50;99.90;;;;;;5117984;27;19923;-80
2022/10/03 00:44:49;;;;;;;;;;;12.50;99.90;;;;;;5116886;27;20017;-81
2022/10/03 00:47:32;;;;;;;;;;;12.50;99.90;;;;;;5136386;27;19963;-80
2022/10/03 00:50:03;;;;;;;;;;;12.50;99.90;;;;;;5136848;27;19931;-79
2022/10/03 00:52:32;;;;;;;;;;;12.40;99.90;;;;;;5123165;27;19928;-80
2022/10/03 00:55:01;;;;;;;;;;;12.40;99.90;;;;;;5104822;28;19967;-80
2022/10/03 00:57:49;;;;;;;;;;;12.40;99.90;;;;;;5098822;28;19966;-80
2022/10/03 01:00:23;;;;;;;;;;;12.40;99.90;;;;;;5101185;27;19923;-80
2022/10/03 01:03:04;;;;;;;;;;;12.40;99.90;;;;;;5118669;27;20424;-79
2022/10/03 01:05:37;;;;;;;;;;;12.30;99.90;;;;;;5135215;27;20268;-80
2022/10/03 01:08:15;;;;;;;;;;;12.30;99.90;;;;;;5122386;27;19974;-80
2022/10/03 01:11:07;;;;;;;;;;;12.30;99.90;;;;;;5098273;28;19923;-79
2022/10/03 01:13:48;;;;;;;;;;;12.30;99.90;;;;;;5087312;27;20014;-80
2022/10/03 01:16:26;;;;;;;;;;;12.30;99.90;;;;;;5106579;28;19923;-80
2022/10/03 01:18:51;;;;;;;;;;;12.30;99.90;;;;;;5126630;27;19931;-80
2022/10/03 01:21:24;;;;;;;;;;;12.30;99.90;;;;;;5116013;27;19924;-79
2022/10/03 01:23:56;;;;;;;;;;;12.20;99.90;;;;;;5106406;27;20006;-80
2022/10/03 01:26:42;;;;;;;;;;;12.20;99.90;;;;;;5135458;27;19924;-80
2022/10/03 01:32:03;;;;;;;;;;;12.30;99.90;;;;;;5118703;27;19955;-80
2022/10/03 01:34:41;;;;;;;;;;;12.30;99.90;;;;;;5118358;27;19931;-80
2022/10/03 01:37:18;;;;;;;;;;;12.20;99.90;;;;;;5114168;27;19930;-80
2022/10/03 01:39:46;;;;;;;;;;;12.30;99.90;;;;;;5122501;27;19924;-80
2022/10/03 01:42:12;;;;;;;;;;;12.30;99.90;;;;;;5098188;28;19975;-80
2022/10/03 01:45:00;;;;;;;;;;;12.30;99.90;;;;;;5097173;28;19923;-80
2022/10/03 01:47:50;;;;;;;;;;;12.20;99.90;;;;;;5114537;27;19924;-80
2022/10/03 01:50:22;;;;;;;;;;;12.20;99.90;;;;;;5115094;27;20029;-80
2022/10/03 01:52:53;;;;;;;;;;;12.20;99.90;;;;;;5114372;28;20728;-80
2022/10/03 01:55:28;;;;;;;;;;;12.20;99.90;;;;;;5106831;27;19963;-80
2022/10/03 01:58:00;;;;;;;;;;;12.20;99.90;;;;;;5134187;27;19924;-80
2022/10/03 02:00:29;;;;;;;;;;;12.20;99.90;;;;;;5108758;27;19928;-80
2022/10/03 02:03:06;;;;;;;;;;;12.20;99.90;;;;;;5120156;27;19924;-79
2022/10/03 02:05:34;;;;;;;;;;;12.10;99.90;;;;;;5121718;27;20026;-81
2022/10/03 02:08:04;;;;;;;;;;;12.10;99.90;;;;;;5130094;27;19927;-80
2022/10/03 02:10:42;;;;;;;;;;;12.10;99.90;;;;;;5100426;27;19986;-79
2022/10/03 02:13:27;;;;;;;;;;;12.10;99.90;;;;;;5104427;27;19930;-80
2022/10/03 02:16:12;;;;;;;;;;;12.00;99.90;;;;;;5103087;28;19924;-79
2022/10/03 02:18:37;;;;;;;;;;;12.00;99.90;;;;;;5116218;27;19927;-80
2022/10/03 02:21:08;;;;;;;;;;;12.00;99.90;;;;;;5109873;27;20282;-79
2022/10/03 02:23:33;;;;;;;;;;;12.10;99.90;;;;;;5098382;28;19924;-80
2022/10/03 02:25:59;;;;;;;;;;;12.00;99.90;;;;;;5097074;28;19924;-80
2022/10/03 02:28:45;;;;;;;;;;;12.00;99.90;;;;;;5096721;28;19924;-81
2022/10/03 02:31:22;;;;;;;;;;;12.00;99.90;;;;;;5101004;27;19924;-79
2022/10/03 02:34:07;;;;;;;;;;;11.90;99.90;;;;;;5110566;27;19971;-80
2022/10/03 02:36:39;;;;;;;;;;;11.90;99.90;;;;;;5081878;27;19923;-85
2022/10/03 02:39:08;;;;;;;;;;;11.90;99.90;;;;;;5117111;27;20297;-80
2022/10/03 02:41:33;;;;;;;;;;;11.90;99.90;;;;;;5133770;27;19931;-82
2022/10/03 02:44:06;;;;;;;;;;;11.80;99.90;;;;;;5133868;27;19931;-79
2022/10/03 02:46:37;;;;;;;;;;;11.80;99.90;;;;;;5117132;27;19924;-80
2022/10/03 02:49:21;;;;;;;;;;;11.70;99.90;;;;;;5096621;28;19953;-80
2022/10/03 02:51:53;;;;;;;;;;;11.60;99.90;;;;;;5112052;28;19924;-80
2022/10/03 02:54:22;;;;;;;;;;;11.50;99.90;;;;;;5100332;27;20068;-80
2022/10/03 02:56:57;;;;;;;;;;;11.50;99.90;;;;;;5133745;27;20034;-79
2022/10/03 02:59:43;;;;;;;;;;;11.40;99.90;;;;;;5116646;27;19927;-79
2022/10/03 03:02:18;;;;;;;;;;;11.30;99.90;;;;;;5131323;27;19972;-80
2022/10/03 03:04:46;;;;;;;;;;;11.20;99.90;;;;;;5107445;27;19993;-80
2022/10/03 03:07:30;;;;;;;;;;;11.20;99.90;;;;;;5129072;27;19924;-80
2022/10/03 03:10:11;;;;;;;;;;;11.10;99.90;;;;;;5131588;27;19991;-79
2022/10/03 03:12:53;;;;;;;;;;;11.00;99.90;;;;;;5115402;27;20422;-85
2022/10/03 03:15:18;;;;;;;;;;;11.00;99.90;;;;;;5116749;27;19935;-80
2022/10/03 03:17:59;;;;;;;;;;;11.00;99.90;;;;;;5128797;27;19998;-80
2022/10/03 03:20:36;;;;;;;;;;;10.90;99.90;;;;;;5122875;27;20030;-80
2022/10/03 03:23:17;;;;;;;;;;;10.90;99.90;;;;;;5115377;27;20272;-80
2022/10/03 03:26:01;;;;;;;;;;;10.80;99.90;;;;;;5132521;27;20014;-80
2022/10/03 03:28:36;;;;;;;;;;;10.80;99.90;;;;;;5102158;28;19930;-79
2022/10/03 03:31:15;;;;;;;;;;;10.80;99.90;;;;;;5125742;27;19924;-80
2022/10/03 03:34:01;;;;;;;;;;;10.70;99.90;;;;;;5131665;27;19969;-80
2022/10/03 03:36:26;;;;;;;;;;;10.70;99.90;;;;;;5097344;27;19931;-80
2022/10/03 03:38:58;;;;;;;;;;;10.70;99.90;;;;;;5127681;27;19923;-79
2022/10/03 03:41:35;;;;;;;;;;;10.60;99.90;;;;;;5113758;28;19931;-80
2022/10/03 03:44:19;;;;;;;;;;;10.60;99.90;;;;;;5109153;28;20746;-80
2022/10/03 03:46:51;;;;;;;;;;;10.60;99.90;;;;;;5095211;28;20027;-80
2022/10/03 03:49:16;;;;;;;;;;;10.60;99.90;;;;;;5095581;28;19924;-79
2022/10/03 03:52:15;;;;;;;;;;;10.60;99.90;;;;;;5112327;28;20367;-80
2022/10/03 03:54:50;;;;;;;;;;;10.60;99.90;;;;;;5066545;28;19923;-80
2022/10/03 03:57:16;;;;;;;;;;;10.60;99.90;;;;;;5114983;28;19931;-79
2022/10/03 03:59:54;;;;;;;;;;;10.60;99.90;;;;;;5104515;28;19924;-83
2022/10/03 04:02:38;;;;;;;;;;;10.60;99.90;;;;;;5106061;28;20375;-79
2022/10/03 04:05:07;;;;;;;;;;;10.60;99.90;;;;;;5116108;28;20390;-79
2022/10/03 04:07:42;;;;;;;;;;;10.60;99.90;;;;;;5120358;28;19928;-80
2022/10/03 04:10:20;;;;;;;;;;;10.60;99.90;;;;;;5107863;28;20387;-79
2022/10/03 04:12:48;;;;;;;;;;;10.60;99.90;;;;;;5126721;28;19930;-80
2022/10/03 04:15:20;;;;;;;;;;;10.60;99.90;;;;;;5107851;27;19924;-80
2022/10/03 04:20:52;;;;;;;;;;;10.60;99.90;;;;;;5137037;27;20290;-79
2022/10/03 04:23:23;;;;;;;;;;;10.50;99.90;;;;;;5102214;28;19959;-80
2022/10/03 04:25:53;;;;;;;;;;;10.50;99.90;;;;;;5119549;27;19932;-80
2022/10/03 04:28:26;;;;;;;;;;;10.50;99.90;;;;;;5099595;28;19934;-79
2022/10/03 04:31:11;;;;;;;;;;;10.50;99.90;;;;;;5118158;27;19928;-79
2022/10/03 04:33:55;;;;;;;;;;;10.50;99.90;;;;;;5111651;28;19924;-79
2022/10/03 04:36:20;;;;;;;;;;;10.40;99.90;;;;;;5100034;27;19924;-79
2022/10/03 04:38:59;;;;;;;;;;;10.40;99.90;;;;;;5136807;27;19923;-83
2022/10/03 04:41:48;;;;;;;;;;;10.30;99.90;;;;;;5111703;28;20386;-80
2022/10/03 04:44:20;;;;;;;;;;;10.30;99.90;;;;;;5133427;27;19938;-79
2022/10/03 04:46:51;;;;;;;;;;;10.20;99.90;;;;;;5131673;27;19980;-79
2022/10/03 04:49:20;;;;;;;;;;;10.20;99.90;;;;;;5108828;27;20380;-79
2022/10/03 04:51:46;;;;;;;;;;;10.30;99.90;;;;;;5113136;28;20010;-79
2022/10/03 04:54:17;;;;;;;;;;;10.20;99.90;;;;;;5098894;28;20331;-80
2022/10/03 04:56:58;;;;;;;;;;;10.10;99.90;;;;;;5099056;28;20064;-80
2022/10/03 04:59:37;;;;;;;;;;;10.00;99.90;;;;;;5128758;27;19968;-80
2022/10/03 05:02:02;;;;;;;;;;;10.10;99.90;;;;;;5100322;27;19931;-80
2022/10/03 05:04:28;;;;;;;;;;;10.10;99.90;;;;;;5133947;27;19927;-80
2022/10/03 05:06:54;;;;;;;;;;;10.00;99.90;;;;;;5118309;27;19924;-80
2022/10/03 05:09:40;;;;;;;;;;;10.00;99.90;;;;;;5118603;27;19946;-79
2022/10/03 05:12:05;;;;;;;;;;;10.00;99.90;;;;;;5100711;27;19956;-79
2022/10/03 05:14:31;;;;;;;;;;;10.00;99.90;;;;;;5135715;27;19923;-80
2022/10/03 05:17:05;;;;;;;;;;;10.00;99.90;;;;;;5118798;27;20018;-79
2022/10/03 05:19:46;;;;;;;;;;;9.90;99.90;;;;;;5123292;27;20421;-79
2022/10/03 05:22:23;;;;;;;;;;;10.00;99.90;;;;;;5116595;27;19928;-79
2022/10/03 05:25:08;;;;;;;;;;;10.00;99.90;;;;;;5132126;27;19931;-79
2022/10/03 05:27:36;;;;;;;;;;;10.00;99.90;;;;;;5116625;27;20359;-79
2022/10/03 05:30:17;;;;;;;;;;;9.90;99.90;;;;;;5100464;28;20022;-79
2022/10/03 05:33:22;;;;;;;;;;;9.90;99.90;;;;;;5115188;27;19928;-79
2022/10/03 05:35:49;;;;;;;;;;;9.90;99.90;;;;;;5052788;28;19925;-79
2022/10/03 05:38:15;;;;;;;;;;;9.90;99.90;;;;;;5023226;28;19924;-80
2022/10/03 05:40:58;;;;;;;;;;;9.90;99.90;;;;;;5082401;27;19931;-80
2022/10/03 05:43:34;;;;;;;;;;;10.00;99.90;;;;;;5120327;27;19924;-79
2022/10/03 05:46:08;;;;;;;;;;;9.90;99.90;;;;;;5107514;28;19924;-79
2022/10/03 05:48:49;;;;;;;;;;;9.90;99.90;;;;;;5120882;27;19970;-79
2022/10/03 05:51:35;;;;;;;;;;;10.00;99.90;;;;;;5108808;27;19959;-80
2022/10/03 05:54:20;;;;;;;;;;;9.90;99.90;;;;;;5097132;28;20448;-80
2022/10/03 05:56:51;;;;;;;;;;;9.90;99.90;;;;;;5098519;27;20381;-79
2022/10/03 05:59:17;;;;;;;;;;;9.80;99.90;;;;;;5133151;27;19949;-80
2022/10/03 06:01:46;;;;;;;;;;;9.80;99.90;;;;;;5119664;27;19927;-79
2022/10/03 06:04:30;;;;;;;;;;;9.80;99.90;;;;;;5125395;27;19930;-78
2022/10/03 06:07:06;;;;;;;;;;;9.90;99.90;;;;;;5128012;27;19932;-78
2022/10/03 06:09:38;;;;;;;;;;;9.90;99.90;;;;;;5114139;27;20256;-82
2022/10/03 06:12:19;;;;;;;;;;;9.90;99.90;;;;;;5120565;27;19930;-78
2022/10/03 06:14:48;;;;;;;;;;;9.90;99.90;;;;;;5123558;27;19973;-78
2022/10/03 06:17:32;;;;;;;;;;;9.90;99.90;;;;;;5096934;28;19973;-79
2022/10/03 06:19:58;;;;;;;;;;;9.80;99.90;;;;;;5125828;27;19923;-81
2022/10/03 06:22:32;;;;;;;;;;;9.80;99.90;;;;;;5129280;27;19924;-78
2022/10/03 06:25:01;;;;;;;;;;;9.80;99.90;;;;;;5127323;27;20267;-78
2022/10/03 06:27:39;;;;;;;;;;;9.80;99.90;;;;;;5116435;27;19928;-78
2022/10/03 06:30:17;;;;;;;;;;;9.80;99.90;;;;;;5113816;28;19975;-78
2022/10/03 06:33:02;;;;;;;;;;;9.80;99.90;;;;;;5104622;27;19972;-80
2022/10/03 06:35:31;;;;;;;;;;;9.90;99.90;;;;;;5105501;27;20283;-77
2022/10/03 06:37:57;;;;;;;;;;;9.90;99.90;;;;;;5110101;28;20295;-79
2022/10/03 06:40:46;;;;;;;;;;;10.10;99.90;;;;;;5125441;27;19923;-75
2022/10/03 06:43:11;;;;;;;;;;;10.20;99.90;;;;;;5116803;27;19931;-81
2022/10/03 06:45:56;;;;;;;;;;;10.40;99.90;;;;;;5115660;27;19923;-80
2022/10/03 06:48:40;;;;;;;;;;;10.50;99.90;;;;;;5112737;28;19930;-76
2022/10/03 06:51:15;;;;;;;;;;;10.60;99.90;;;;;;5118121;27;19930;-75
2022/10/03 06:53:51;;;;;;;;;;;10.70;99.90;;;;;;5100023;27;19946;-76
2022/10/03 06:56:27;;;;;;;;;;;10.70;99.90;;;;;;5096916;28;19948;-76
2022/10/03 06:59:00;;;;;;;;;;;10.80;99.90;;;;;;5097334;28;20060;-73
2022/10/03 07:01:48;;;;;;;;;;;10.80;99.90;;;;;;5118003;27;19924;-77
2022/10/03 07:04:14;;;;;;;;;;;10.90;99.90;;;;;;5065387;27;19955;-77
2022/10/03 07:06:43;;;;;;;;;;;10.90;99.90;;;;;;5133272;27;20394;-77
2022/10/03 07:09:34;;;;;;;;;;;11.00;99.90;;;;;;5106291;27;20093;-77
2022/10/03 07:12:20;;;;;;;;;;;11.20;99.90;;;;;;5114090;27;20062;-80
2022/10/03 07:14:58;;;;;;;;;;;11.30;99.90;;;;;;5095211;28;19924;-77
2022/10/03 07:17:27;;;;;;;;;;;11.40;99.90;;;;;;5095209;28;19923;-77
2022/10/03 07:19:53;;;;;;;;;;;11.60;99.90;;;;;;5109380;27;19924;-77
2022/10/03 07:22:31;;;;;;;;;;;11.60;99.90;;;;;;5115589;27;19935;-77
2022/10/03 07:25:05;;;;;;;;;;;11.70;99.90;;;;;;5111988;28;20275;-77
2022/10/03 07:27:50;;;;;;;;;;;11.80;99.90;;;;;;5114518;27;19946;-77
2022/10/03 07:30:17;;;;;;;;;;;12.00;99.90;;;;;;5112315;28;19981;-77
2022/10/03 07:33:01;;;;;;;;;;;12.00;99.90;;;;;;5113017;27;19928;-77
2022/10/03 07:38:56;;;;;;;;;;;12.30;99.90;;;;;;5131898;27;19963;-77
2022/10/03 07:41:45;;;;;;;;;;;12.30;99.90;;;;;;5132698;27;20260;-77
2022/10/03 07:44:30;;;;;;;;;;;12.40;99.90;;;;;;5115260;28;19968;-77
2022/10/03 07:47:00;;;;;;;;;;;12.50;99.90;;;;;;5115424;28;20018;-77
2022/10/03 07:49:49;;;;;;;;;;;12.60;99.90;;;;;;5130236;27;20335;-77
2022/10/03 07:52:38;;;;;;;;;;;12.70;99.90;;;;;;5132098;28;19980;-77
2022/10/03 07:55:16;;;;;;;;;;;12.80;99.90;;;;;;5118583;28;20333;-77
2022/10/03 07:57:53;;;;;;;;;;;12.90;99.90;;;;;;5112337;28;19923;-77
2022/10/03 08:00:25;;;;;;;;;;;13.00;99.90;;;;;;5112752;28;19928;-77
2022/10/03 08:02:54;;;;;;;;;;;13.10;99.90;;;;;;5112458;28;19927;-77
2022/10/03 08:05:39;;;;;;;;;;;13.20;99.90;;;;;;5125564;28;19923;-77
2022/10/03 08:08:17;;;;;;;;;;;13.30;99.90;;;;;;5132085;28;20378;-77
2022/10/03 08:10:56;;;;;;;;;;;13.30;99.90;;;;;;5104454;28;20362;-78
2022/10/03 08:13:25;;;;;;;;;;;13.50;99.90;;;;;;5095216;28;20026;-77
2022/10/03 08:15:52;;;;;;;;;;;13.60;99.90;;;;;;5094848;28;19924;-77
2022/10/03 08:18:17;;;;;;;;;;;13.60;99.90;;;;;;5094680;28;19945;-77
2022/10/03 08:20:46;;;;;;;;;;;13.70;99.90;;;;;;5119301;28;19923;-77
2022/10/03 08:23:30;;;;;;;;;;;13.80;99.90;;;;;;5114621;28;19924;-77
2022/10/03 08:26:16;;;;;;;;;;;13.90;99.90;;;;;;5120105;28;19924;-77
2022/10/03 08:28:44;;;;;;;;;;;14.00;99.90;;;;;;5095311;28;19924;-77
2022/10/03 08:31:10;;;;;;;;;;;14.10;99.90;;;;;;5112499;28;19924;-80
2022/10/03 08:33:38;;;;;;;;;;;14.20;99.90;;;;;;5111964;28;19949;-77
2022/10/03 08:36:07;;;;;;;;;;;14.20;99.90;;;;;;5111115;28;19923;-77
2022/10/03 08:38:34;;;;;;;;;;;14.30;99.90;;;;;;5114816;28;20050;-77
2022/10/03 08:41:31;;;;;;;;;;;14.30;99.90;;;;;;5132815;28;19972;-77
2022/10/03 08:44:05;;;;;;;;;;;14.40;99.90;;;;;;5132568;28;19978;-77
2022/10/03 08:46:50;;;;;;;;;;;14.50;99.90;;;;;;5113036;28;20458;-77
2022/10/03 08:49:32;;;;;;;;;;;14.60;99.90;;;;;;5094853;28;19924;-77
2022/10/03 08:52:07;;;;;;;;;;;14.70;99.90;;;;;;5111884;28;19924;-77
2022/10/03 08:54:35;;;;;;;;;;;14.70;99.90;;;;;;5094504;28;19934;-78
2022/10/03 08:57:05;;;;;;;;;;;14.80;99.90;;;;;;5130251;28;19927;-77
2022/10/03 08:59:45;;;;;;;;;;;14.90;99.90;;;;;;5114504;27;19923;-78
2022/10/03 09:02:14;;;;;;;;;;;14.90;99.90;;;;;;5135701;27;19930;-77
2022/10/03 09:04:57;;;;;;;;;;;15.10;99.90;;;;;;5135975;27;19927;-77
2022/10/03 09:07:22;;;;;;;;;;;15.20;99.90;;;;;;5117244;27;19995;-78
2022/10/03 09:10:07;;;;;;;;;;;15.30;99.90;;;;;;5136173;27;20371;-80
2022/10/03 09:12:33;;;;;;;;;;;15.30;99.90;;;;;;5112479;27;19927;-78
2022/10/03 09:15:24;;;;;;;;;;;15.40;99.90;;;;;;5128140;27;19933;-81
2022/10/03 09:17:56;;;;;;;;;;;15.50;99.90;;;;;;5088039;27;19971;-82
2022/10/03 09:20:40;;;;;;;;;;;15.60;99.90;;;;;;5124418;27;20006;-77
2022/10/03 09:23:18;;;;;;;;;;;15.60;99.90;;;;;;5097988;28;19995;-78
2022/10/03 09:25:44;;;;;;;;;;;15.70;99.90;;;;;;5129258;27;19923;-77
2022/10/03 09:28:11;;;;;;;;;;;15.80;99.90;;;;;;5116812;27;20288;-78
2022/10/03 09:30:39;;;;;;;;;;;15.80;99.90;;;;;;5114417;28;19969;-78
2022/10/03 09:33:26;;;;;;;;;;;15.80;99.90;;;;;;5107024;27;19966;-77
2022/10/03 09:36:10;;;;;;;;;;;15.90;99.90;;;;;;5152651;27;19923;-76
2022/10/03 09:38:35;;;;;;;;;;;15.90;99.90;;;;;;5125780;27;20269;-76
2022/10/03 09:41:24;;;;;;;;;;;16.00;99.90;;;;;;5125511;27;19934;-76
2022/10/03 09:44:00;;;;;;;;;;;16.00;99.90;;;;;;5070529;27;19980;-78
2022/10/03 09:46:29;;;;;;;;;;;16.00;99.90;;;;;;5100987;27;19930;-77
2022/10/03 09:49:01;;;;;;;;;;;16.00;99.90;;;;;;5134570;27;19924;-78
2022/10/03 09:51:32;;;;;;;;;;;16.10;99.90;;;;;;5131581;27;19923;-77
2022/10/03 09:54:30;;;;;;;;;;;16.20;99.90;;;;;;5134896;27;19924;-77
2022/10/03 09:56:59;;;;;;;;;;;16.20;99.90;;;;;;5080977;28;19924;-77
2022/10/03 09:59:43;;;;;;;;;;;16.30;99.90;;;;;;5117060;27;19923;-79
2022/10/03 10:02:27;;;;;;;;;;;16.30;99.90;;;;;;5125990;27;19988;-77
2022/10/03 10:05:10;;;;;;;;;;;16.40;99.90;;;;;;5134705;27;19930;-78
2022/10/03 10:07:43;;;;;;;;;;;16.50;99.90;;;;;;5116650;27;19930;-78
2022/10/03 10:10:09;;;;;;;;;;;16.50;99.90;;;;;;5134996;27;19931;-78
2022/10/03 10:12:54;;;;;;;;;;;16.60;99.90;;;;;;5133864;27;20454;-78
2022/10/03 10:15:23;;;;;;;;;;;16.60;99.90;;;;;;5116963;27;19923;-82
2022/10/03 10:18:20;;;;;;;;;;;16.60;99.90;;;;;;5133942;27;20465;-78
2022/10/03 10:20:54;;;;;;;;;;;16.50;99.90;;;;;;5116697;27;19923;-75
2022/10/03 10:23:29;;;;;;;;;;;16.60;99.90;;;;;;5123652;27;20435;-79
2022/10/03 10:26:21;;;;;;;;;;;16.70;99.90;;;;;;5107083;27;19924;-79
2022/10/03 10:29:07;;;;;;;;;;;16.70;99.90;;;;;;5077635;27;20256;-80
2022/10/03 10:31:53;;;;;;;;;;;16.70;99.90;;;;;;5134014;27;19930;-81
2022/10/03 10:34:18;;;;;;;;;;;16.80;99.90;;;;;;5117012;27;19992;-80
2022/10/03 10:37:03;;;;;;;;;;;16.80;99.90;;;;;;5133587;27;20377;-80
2022/10/03 10:39:41;;;;;;;;;;;16.90;99.90;;;;;;5102882;27;19928;-80
2022/10/03 10:42:19;;;;;;;;;;;17.00;99.90;;;;;;5125831;27;19923;-80
2022/10/03 10:44:57;;;;;;;;;;;16.90;99.90;;;;;;5127996;27;19930;-80
2022/10/03 10:47:38;;;;;;;;;;;16.90;99.90;;;;;;5112805;27;19930;-80
2022/10/03 10:50:16;;;;;;;;;;;16.90;99.90;;;;;;5117107;27;19924;-80
2022/10/03 10:52:46;;;;;;;;;;;17.00;99.90;;;;;;5134089;27;19971;-80
2022/10/03 10:55:30;;;;;;;;;;;17.10;99.90;;;;;;5133845;27;19923;-80
2022/10/03 10:58:14;;;;;;;;;;;17.20;99.90;;;;;;5123125;27;20040;-84
2022/10/03 11:00:55;;;;;;;;;;;17.30;99.90;;;;;;5096724;28;19924;-87
2022/10/03 11:03:39;;;;;;;;;;;17.40;99.90;;;;;;5101380;28;19949;-85
2022/10/03 11:06:17;;;;;;;;;;;17.40;99.90;;;;;;5116535;27;19924;-82
2022/10/03 11:09:01;;;;;;;;;;;17.40;99.90;;;;;;5111452;27;19930;-82
2022/10/03 11:11:40;;;;;;;;;;;17.50;99.90;;;;;;5110411;27;19923;-84
2022/10/03 11:14:27;;;;;;;;;;;17.60;99.90;;;;;;5099202;28;20031;-84
2022/10/03 11:17:01;;;;;;;;;;;17.60;99.90;;;;;;5107890;27;19924;-81
2022/10/03 11:19:42;;;;;;;;;;;17.60;99.90;;;;;;5123056;27;19930;-86
2022/10/03 11:22:11;;;;;;;;;;;17.70;99.90;;;;;;5118645;27;19930;-82
2022/10/03 11:24:55;;;;;;;;;;;17.90;99.90;;;;;;5102958;27;19924;-82
2022/10/03 11:27:39;;;;;;;;;;;18.20;99.90;;;;;;5134708;27;19927;-85
2022/10/03 11:30:24;;;;;;;;;;;18.20;99.90;;;;;;5104907;27;19969;-84
2022/10/03 11:33:08;;;;;;;;;;;18.20;99.90;;;;;;5123939;27;19934;-84
2022/10/03 11:35:48;;;;;;;;;;;18.50;99.90;;;;;;5116334;28;19931;-90
2022/10/03 11:38:14;;;;;;;;;;;18.50;99.90;;;;;;5112484;27;19924;-82
2022/10/03 11:40:58;;;;;;;;;;;18.40;99.90;;;;;;5111858;28;19924;-82
2022/10/03 11:43:31;;;;;;;;;;;18.30;99.90;;;;;;5111745;28;19977;-81
2022/10/03 11:46:15;;;;;;;;;;;18.10;99.90;;;;;;5112960;28;20412;-81
2022/10/03 11:48:45;;;;;;;;;;;18.10;99.90;;;;;;5112548;28;19923;-81
2022/10/03 11:51:29;;;;;;;;;;;18.10;99.90;;;;;;5095661;28;20022;-81
2022/10/03 11:53:54;;;;;;;;;;;18.10;99.90;;;;;;5096781;28;19924;-81
2022/10/03 11:56:31;;;;;;;;;;;18.30;99.90;;;;;;5112580;28;19934;-81
2022/10/03 11:59:11;;;;;;;;;;;18.40;99.90;;;;;;5124976;28;19931;-81
2022/10/03 12:02:03;;;;;;;;;;;18.50;99.90;;;;;;5115864;28;19931;-82
2022/10/03 12:04:53;;;;;;;;;;;18.60;99.90;;;;;;5069232;28;19932;-82
2022/10/03 12:10:40;;;;;;;;;;;18.70;99.90;;;;;;5112411;28;19928;-81
2022/10/03 12:13:11;;;;;;;;;;;18.70;99.90;;;;;;5095272;28;20006;-81
2022/10/03 12:15:39;;;;;;;;;;;18.60;99.90;;;;;;5096387;28;19930;-92
2022/10/03 12:18:08;;;;;;;;;;;18.60;99.90;;;;;;5096495;28;19981;-87
2022/10/03 12:20:43;;;;;;;;;;;18.60;99.90;;;;;;5112685;28;19924;-92
2022/10/03 12:23:22;;;;;;;;;;;18.70;99.90;;;;;;5096232;28;19924;-91
2022/10/03 12:25:49;;;;;;;;;;;18.70;99.90;;;;;;5120049;28;19943;-92
2022/10/03 12:28:19;;;;;;;;;;;18.80;99.90;;;;;;5101799;28;19924;-93
2022/10/03 12:31:04;;;;;;;;;;;18.80;99.90;;;;;;5112934;28;19927;-94
2022/10/03 12:33:44;;;;;;;;;;;19.00;99.90;;;;;;5098230;28;19928;-92
2022/10/03 12:36:24;;;;;;;;;;;19.10;99.90;;;;;;5113283;27;19981;-90
2022/10/03 12:38:53;;;;;;;;;;;19.20;99.90;;;;;;5125429;27;20014;-91
2022/10/03 12:41:27;;;;;;;;;;;19.20;99.90;;;;;;5140447;27;19928;-92
2022/10/03 12:44:08;;;;;;;;;;;19.20;99.90;;;;;;5124454;27;19929;-90
2022/10/03 12:46:39;;;;;;;;;;;19.00;99.90;;;;;;5121888;27;19923;-93
2022/10/03 12:49:10;;;;;;;;;;;19.00;99.90;;;;;;5121064;27;19923;-90
2022/10/03 12:51:54;;;;;;;;;;;18.90;99.90;;;;;;5137992;27;19946;-88
2022/10/03 12:54:23;;;;;;;;;;;19.00;99.90;;;;;;5137001;27;19928;-86
2022/10/03 12:57:00;;;;;;;;;;;18.90;99.90;;;;;;5133428;27;19980;-80
2022/10/03 12:59:31;;;;;;;;;;;18.90;99.90;;;;;;5116258;27;19923;-79
2022/10/03 13:02:11;;;;;;;;;;;19.00;99.90;;;;;;5096491;28;20242;-79
2022/10/03 13:04:42;;;;;;;;;;;19.20;99.90;;;;;;5112538;28;19928;-78
2022/10/03 13:07:17;;;;;;;;;;;19.50;99.90;;;;;;5112218;28;19932;-80
2022/10/03 13:10:01;;;;;;;;;;;19.60;99.90;;;;;;5132722;27;20291;-78
2022/10/03 13:12:38;;;;;;;;;;;19.80;99.90;;;;;;5116137;27;20038;-82
2022/10/03 13:15:13;;;;;;;;;;;19.80;99.90;;;;;;5135208;27;20026;-82
2022/10/03 13:17:48;;;;;;;;;;;20.10;99.90;;;;;;5117481;27;19928;-85
2022/10/03 13:20:13;;;;;;;;;;;20.20;99.90;;;;;;5131584;27;19946;-82
2022/10/03 13:22:45;;;;;;;;;;;20.30;99.90;;;;;;5134399;27;20366;-86
2022/10/03 13:25:17;;;;;;;;;;;20.40;99.90;;;;;;5134241;27;20375;-83
2022/10/03 13:27:58;;;;;;;;;;;20.50;99.90;;;;;;5134704;27;19962;-83
2022/10/03 13:30:27;;;;;;;;;;;20.60;99.90;;;;;;5107089;28;19924;-82
2022/10/03 13:32:56;;;;;;;;;;;20.70;99.90;;;;;;5096938;28;20340;-83
2022/10/03 13:38:09;;;;;;;;;;;20.20;99.90;;;;;;5114297;27;19931;-83
2022/10/03 13:40:38;;;;;;;;;;;20.40;99.90;;;;;;5098543;28;19923;-83
2022/10/03 13:43:10;;;;;;;;;;;20.30;99.90;;;;;;5116799;27;19972;-83
2022/10/03 13:45:38;;;;;;;;;;;20.50;99.90;;;;;;5099729;28;19924;-77
2022/10/03 13:48:05;;;;;;;;;;;20.50;99.90;;;;;;5111411;28;19931;-78
2022/10/03 13:50:35;;;;;;;;;;;20.40;99.90;;;;;;5113923;27;19924;-79
2022/10/03 13:53:01;;;;;;;;;;;20.30;99.90;;;;;;5111468;28;19974;-80
2022/10/03 13:55:41;;;;;;;;;;;20.30;99.90;;;;;;5111781;27;20433;-79
2022/10/03 13:58:17;;;;;;;;;;;20.40;99.90;;;;;;5111941;28;20022;-80
2022/10/03 14:00:51;;;;;;;;;;;20.20;99.90;;;;;;5101103;27;20014;-81
2022/10/03 14:03:35;;;;;;;;;;;20.00;99.90;;;;;;5131701;27;19931;-80
2022/10/03 14:06:04;;;;;;;;;;;19.80;99.90;;;;;;5115116;27;19934;-81
2022/10/03 14:08:48;;;;;;;;;;;19.70;99.90;;;;;;5132420;27;19927;-79
2022/10/03 14:11:33;;;;;;;;;;;19.60;99.90;;;;;;5124163;27;19995;-80
2022/10/03 14:14:05;;;;;;;;;;;19.50;99.90;;;;;;5094024;28;20022;-80
2022/10/03 14:16:33;;;;;;;;;;;19.30;99.90;;;;;;5104427;27;19923;-81
2022/10/03 14:19:08;;;;;;;;;;;19.20;99.90;;;;;;5111130;27;19927;-80
2022/10/03 14:21:49;;;;;;;;;;;19.00;99.90;;;;;;5112886;27;19935;-80
2022/10/03 14:24:21;;;;;;;;;;;18.90;99.90;;;;;;5113846;27;19931;-80
2022/10/03 14:26:50;;;;;;;;;;;18.80;99.90;;;;;;5131093;27;19980;-83
2022/10/03 14:29:26;;;;;;;;;;;18.80;99.90;;;;;;5114935;27;19931;-79
2022/10/03 14:31:52;;;;;;;;;;;18.80;99.90;;;;;;5113872;27;19977;-79
2022/10/03 14:34:23;;;;;;;;;;;18.80;99.90;;;;;;5130185;27;19975;-81
2022/10/03 14:36:55;;;;;;;;;;;18.80;99.90;;;;;;5131080;27;20432;-79
2022/10/03 14:39:39;;;;;;;;;;;18.90;99.90;;;;;;5116068;27;19980;-79
2022/10/03 14:42:40;;;;;;;;;;;18.80;99.90;;;;;;5095305;27;19935;-80
2022/10/03 14:45:07;;;;;;;;;;;18.70;99.90;;;;;;5032223;28;19924;-80
2022/10/03 14:47:34;;;;;;;;;;;18.60;99.90;;;;;;5093934;27;19938;-80
2022/10/03 14:50:00;;;;;;;;;;;18.30;99.90;;;;;;5106084;28;19924;-77
2022/10/03 14:52:36;;;;;;;;;;;18.20;99.90;;;;;;5104159;27;19947;-80
2022/10/03 14:55:06;;;;;;;;;;;18.10;99.90;;;;;;5098067;28;19927;-80
2022/10/03 14:57:33;;;;;;;;;;;18.10;99.90;;;;;;5093577;28;19932;-79
2022/10/03 14:59:59;;;;;;;;;;;18.10;99.90;;;;;;5113605;28;19927;-78
2022/10/03 15:02:36;;;;;;;;;;;18.00;99.90;;;;;;5104686;27;19927;-79
2022/10/03 15:05:31;;;;;;;;;;;18.10;99.90;;;;;;5114307;27;20306;-78
2022/10/03 15:07:56;;;;;;;;;;;18.10;99.90;;;;;;5114123;27;19935;-80
2022/10/03 15:10:24;;;;;;;;;;;18.10;99.90;;;;;;5130706;27;19927;-80
2022/10/03 15:12:53;;;;;;;;;;;18.10;99.90;;;;;;5104805;28;20015;-75
2022/10/03 15:15:23;;;;;;;;;;;18.00;99.90;;;;;;5110005;28;19932;-79
2022/10/03 15:17:53;;;;;;;;;;;18.10;99.90;;;;;;5093517;28;19935;-80
2022/10/03 15:20:23;;;;;;;;;;;18.00;99.90;;;;;;5109183;28;20136;-79
2022/10/03 15:22:54;;;;;;;;;;;18.10;99.90;;;;;;5094867;27;20676;-78